Time;durP1;ratioP1;P1;durP2;ratioP2;P2;SDS_P1;SDS_P2;PMS_P1;PMS_P2;Temp;Humidity;BMP_temperature;BMP_pressure;BME280_temperature;BME280_humidity;BME280_pressure;Samples;Min_cycle;Max_cycle;Signal;HPM_P1;HPM_P2
2021/04/18 00:01:53;;;;;;;11.20;7.35;;;;;;;;;;5022086;28;20065;-79
2021/04/18 00:04:18;;;;;;;12.55;7.30;;;;;;;;;;5033611;28;20385;-79
2021/04/18 00:06:44;;;;;;;13.57;7.55;;;;;;;;;;5033847;28;20100;-78
2021/04/18 00:09:12;;;;;;;12.50;7.72;;;;;;;;;;5034271;28;20028;-80
2021/04/18 00:11:39;;;;;;;10.23;7.65;;;;;;;;;;5033832;28;20048;-80
2021/04/18 00:14:05;;;;;;;17.45;8.35;;;;;;;;;;5034038;28;20017;-80
2021/04/18 00:16:31;;;;;;;12.73;7.78;;;;;;;;;;5033124;28;20041;-80
2021/04/18 00:18:56;;;;;;;11.93;7.90;;;;;;;;;;5033943;28;20028;-80
2021/04/18 00:21:24;;;;;;;11.63;8.40;;;;;;;;;;5033829;28;20355;-80
2021/04/18 00:23:51;;;;;;;13.38;8.25;;;;;;;;;;5033775;28;20044;-80
2021/04/18 00:26:16;;;;;;;12.20;7.47;;;;;;;;;;5033615;28;20446;-80
2021/04/18 00:28:42;;;;;;;9.63;7.57;;;;;;;;;;5016578;28;20029;-80
2021/04/18 00:31:08;;;;;;;16.17;8.65;;;;;;;;;;5033893;28;20030;-80
2021/04/18 00:33:33;;;;;;;14.20;7.95;;;;;;;;;;5034031;28;20025;-80
2021/04/18 00:36:03;;;;;;;11.38;8.48;;;;;;;;;;5033500;28;20466;-80
2021/04/18 00:38:30;;;;;;;15.27;8.77;;;;;;;;;;5033144;28;20028;-80
2021/04/18 00:40:56;;;;;;;12.40;8.05;;;;;;;;;;5033318;28;20022;-80
2021/04/18 00:43:21;;;;;;;15.70;8.32;;;;;;;;;;5016480;28;20036;-80
2021/04/18 00:45:46;;;;;;;14.25;8.00;;;;;;;;;;5033700;28;20109;-80
2021/04/18 00:48:11;;;;;;;13.27;8.10;;;;;;;;;;5032658;28;20040;-80
2021/04/18 00:50:37;;;;;;;12.40;7.72;;;;;;;;;;5033764;28;20332;-80
2021/04/18 00:53:07;;;;;;;11.98;8.13;;;;;;;;;;5033319;28;20037;-80
2021/04/18 00:55:36;;;;;;;14.30;7.88;;;;;;;;;;5033086;28;20021;-81
2021/04/18 00:58:02;;;;;;;16.05;8.20;;;;;;;;;;5031577;28;20358;-80
2021/04/18 01:00:28;;;;;;;12.75;7.95;;;;;;;;;;5032458;28;20043;-80
2021/04/18 01:02:55;;;;;;;15.77;8.63;;;;;;;;;;5033270;28;20051;-81
2021/04/18 01:05:23;;;;;;;13.48;8.05;;;;;;;;;;5032607;28;20063;-80
2021/04/18 01:07:48;;;;;;;13.52;7.90;;;;;;;;;;5033367;28;20525;-80
2021/04/18 01:10:14;;;;;;;11.43;7.43;;;;;;;;;;5016071;28;20100;-81
2021/04/18 01:12:40;;;;;;;11.77;7.50;;;;;;;;;;5033677;28;20053;-80
2021/04/18 01:15:06;;;;;;;11.25;7.95;;;;;;;;;;5033181;28;20138;-80
2021/04/18 01:17:31;;;;;;;11.63;7.60;;;;;;;;;;5033323;28;20392;-81
2021/04/18 01:19:56;;;;;;;11.95;7.57;;;;;;;;;;5032525;28;20097;-81
2021/04/18 01:22:24;;;;;;;12.52;6.90;;;;;;;;;;5016470;28;20124;-81
2021/04/18 01:24:51;;;;;;;11.35;6.68;;;;;;;;;;5032367;28;20566;-81
2021/04/18 01:27:19;;;;;;;11.98;6.82;;;;;;;;;;5020626;28;20474;-81
2021/04/18 01:29:44;;;;;;;13.13;7.35;;;;;;;;;;5013123;28;20033;-81
2021/04/18 01:32:12;;;;;;;10.68;7.03;;;;;;;;;;5021782;28;20370;-81
2021/04/18 01:34:41;;;;;;;9.50;5.68;;;;;;;;;;5039926;28;20032;-81
2021/04/18 01:37:07;;;;;;;7.97;5.93;;;;;;;;;;5021099;28;20026;-81
2021/04/18 01:39:33;;;;;;;10.82;6.40;;;;;;;;;;5013530;28;20022;-80
2021/04/18 01:41:58;;;;;;;13.80;6.15;;;;;;;;;;5031409;28;20025;-81
2021/04/18 01:44:23;;;;;;;9.35;5.53;;;;;;;;;;5030914;28;20128;-81
2021/04/18 01:46:49;;;;;;;13.95;5.88;;;;;;;;;;5032218;28;20409;-81
2021/04/18 01:49:14;;;;;;;9.80;5.68;;;;;;;;;;5033239;28;20021;-81
2021/04/18 01:51:39;;;;;;;7.93;5.72;;;;;;;;;;5019191;28;20040;-81
2021/04/18 01:54:05;;;;;;;13.55;5.63;;;;;;;;;;5038056;28;20041;-81
2021/04/18 01:56:31;;;;;;;11.95;5.40;;;;;;;;;;5038831;28;20033;-81
2021/04/18 01:58:56;;;;;;;8.30;5.35;;;;;;;;;;5037874;28;20017;-82
2021/04/18 02:01:21;;;;;;;12.88;5.70;;;;;;;;;;5037850;28;20390;-81
2021/04/18 02:03:47;;;;;;;12.70;5.60;;;;;;;;;;5037367;28;20120;-81
2021/04/18 02:06:12;;;;;;;10.75;5.78;;;;;;;;;;5019352;28;20029;-81
2021/04/18 02:08:39;;;;;;;13.10;5.97;;;;;;;;;;5036367;28;20109;-81
2021/04/18 02:11:06;;;;;;;9.35;5.88;;;;;;;;;;5036859;28;20025;-82
2021/04/18 02:13:32;;;;;;;12.50;5.45;;;;;;;;;;5036770;28;20087;-82
2021/04/18 02:15:57;;;;;;;10.57;5.60;;;;;;;;;;5036378;28;20442;-82
2021/04/18 02:18:23;;;;;;;11.20;5.80;;;;;;;;;;5036424;28;20022;-82
2021/04/18 02:20:50;;;;;;;11.98;5.97;;;;;;;;;;5036408;28;20095;-82
2021/04/18 02:23:16;;;;;;;9.73;5.38;;;;;;;;;;5023990;28;20083;-80
2021/04/18 02:25:41;;;;;;;10.20;5.70;;;;;;;;;;5034591;28;20096;-80
2021/04/18 02:28:09;;;;;;;8.95;6.10;;;;;;;;;;5035407;28;20030;-81
2021/04/18 02:30:35;;;;;;;10.75;5.82;;;;;;;;;;5017461;28;20159;-81
2021/04/18 02:33:00;;;;;;;8.80;5.63;;;;;;;;;;5016665;28;20120;-81
2021/04/18 02:35:25;;;;;;;13.07;6.03;;;;;;;;;;5016282;28;20026;-81
2021/04/18 02:37:50;;;;;;;10.07;5.63;;;;;;;;;;5032606;28;20025;-81
2021/04/18 02:40:16;;;;;;;10.50;6.20;;;;;;;;;;5030341;28;20153;-81
2021/04/18 02:42:41;;;;;;;11.52;5.93;;;;;;;;;;5016393;28;20092;-81
2021/04/18 02:45:07;;;;;;;13.70;6.05;;;;;;;;;;5019107;28;20049;-81
2021/04/18 02:47:32;;;;;;;10.85;6.47;;;;;;;;;;5018541;28;20022;-81
2021/04/18 02:49:58;;;;;;;11.63;6.05;;;;;;;;;;5035193;28;20036;-81
2021/04/18 02:52:23;;;;;;;7.55;5.60;;;;;;;;;;5035619;28;20021;-81
2021/04/18 02:54:48;;;;;;;10.07;6.13;;;;;;;;;;5035983;28;20032;-81
2021/04/18 02:57:13;;;;;;;13.88;6.10;;;;;;;;;;5022820;28;20082;-81
2021/04/18 02:59:38;;;;;;;9.98;6.25;;;;;;;;;;5034575;28;20018;-81
2021/04/18 03:02:04;;;;;;;12.38;5.88;;;;;;;;;;5034109;28;20108;-81
2021/04/18 03:04:31;;;;;;;10.27;6.00;;;;;;;;;;5013103;28;20021;-81
2021/04/18 03:06:57;;;;;;;9.38;6.00;;;;;;;;;;5025575;28;20371;-81
2021/04/18 03:09:24;;;;;;;10.27;5.53;;;;;;;;;;5034957;28;20032;-81
2021/04/18 03:11:50;;;;;;;9.02;5.03;;;;;;;;;;5016882;28;20508;-81
2021/04/18 03:14:15;;;;;;;9.02;5.40;;;;;;;;;;5035340;28;20021;-81
2021/04/18 03:16:42;;;;;;;9.20;5.38;;;;;;;;;;5035149;28;20082;-81
2021/04/18 03:19:08;;;;;;;12.82;5.57;;;;;;;;;;5018084;28;20094;-81
2021/04/18 03:21:33;;;;;;;8.85;5.00;;;;;;;;;;5034812;28;20021;-81
2021/04/18 03:23:58;;;;;;;10.63;5.38;;;;;;;;;;5035081;28;20036;-81
2021/04/18 03:26:23;;;;;;;11.95;5.18;;;;;;;;;;5035211;28;20018;-81
2021/04/18 03:28:49;;;;;;;9.48;5.55;;;;;;;;;;5034013;28;20040;-81
2021/04/18 03:31:14;;;;;;;6.40;4.70;;;;;;;;;;5034806;28;20024;-81
2021/04/18 03:33:41;;;;;;;12.23;5.53;;;;;;;;;;5017309;28;20036;-82
2021/04/18 03:36:07;;;;;;;8.27;5.65;;;;;;;;;;5035097;28;20013;-82
2021/04/18 03:38:32;;;;;;;11.45;5.30;;;;;;;;;;5034980;28;20124;-81
2021/04/18 03:40:57;;;;;;;11.20;5.50;;;;;;;;;;5034580;28;20022;-81
2021/04/18 03:43:22;;;;;;;9.73;5.10;;;;;;;;;;5018059;28;20086;-81
2021/04/18 03:45:48;;;;;;;10.02;5.20;;;;;;;;;;5017630;28;20030;-82
2021/04/18 03:48:15;;;;;;;8.65;4.68;;;;;;;;;;5034578;28;20393;-81
2021/04/18 03:50:40;;;;;;;9.23;4.78;;;;;;;;;;5034895;28;20021;-81
2021/04/18 03:53:05;;;;;;;9.18;5.40;;;;;;;;;;5016381;28;20032;-81
2021/04/18 03:55:31;;;;;;;8.73;4.75;;;;;;;;;;5017299;28;20044;-81
2021/04/18 03:57:56;;;;;;;10.55;4.93;;;;;;;;;;5028220;28;20371;-81
2021/04/18 04:00:21;;;;;;;8.80;5.25;;;;;;;;;;5014281;28;20439;-81
2021/04/18 04:02:47;;;;;;;9.95;5.55;;;;;;;;;;5014423;28;20029;-81
2021/04/18 04:05:12;;;;;;;8.48;5.43;;;;;;;;;;5014874;28;20022;-81
2021/04/18 04:07:37;;;;;;;8.15;5.28;;;;;;;;;;5015474;28;20021;-81
2021/04/18 04:10:05;;;;;;;9.45;5.07;;;;;;;;;;5034503;28;20017;-81
2021/04/18 04:12:30;;;;;;;11.30;5.53;;;;;;;;;;5034015;28;20030;-81
2021/04/18 04:14:55;;;;;;;9.93;5.43;;;;;;;;;;5030921;28;20032;-81
2021/04/18 04:17:21;;;;;;;8.85;4.95;;;;;;;;;;5034279;28;20026;-81
2021/04/18 04:19:46;;;;;;;7.45;5.43;;;;;;;;;;5033648;28;20017;-81
2021/04/18 04:22:11;;;;;;;12.52;5.93;;;;;;;;;;5016392;28;20172;-80
2021/04/18 04:24:36;;;;;;;12.07;5.25;;;;;;;;;;5032077;28;20115;-81
2021/04/18 04:27:02;;;;;;;11.35;6.05;;;;;;;;;;5033585;28;20018;-81
2021/04/18 04:29:27;;;;;;;9.38;5.30;;;;;;;;;;5032477;28;20546;-80
2021/04/18 04:31:52;;;;;;;9.60;6.13;;;;;;;;;;5033669;28;20029;-80
2021/04/18 04:34:17;;;;;;;8.85;5.80;;;;;;;;;;5033670;28;20057;-82
2021/04/18 04:36:43;;;;;;;12.57;5.90;;;;;;;;;;5033584;28;20092;-81
2021/04/18 04:39:08;;;;;;;9.30;6.03;;;;;;;;;;5033761;28;20055;-77
2021/04/18 04:41:33;;;;;;;9.68;5.80;;;;;;;;;;5016140;28;20025;-80
2021/04/18 04:43:58;;;;;;;9.13;6.20;;;;;;;;;;5033659;28;20033;-80
2021/04/18 04:46:24;;;;;;;13.52;6.47;;;;;;;;;;5033481;28;20402;-79
2021/04/18 04:48:49;;;;;;;10.50;6.03;;;;;;;;;;5033704;28;20096;-80
2021/04/18 04:51:14;;;;;;;12.75;6.30;;;;;;;;;;5015601;28;20057;-79
2021/04/18 04:53:39;;;;;;;9.05;5.28;;;;;;;;;;5033629;28;20025;-80
2021/04/18 04:56:05;;;;;;;14.38;6.82;;;;;;;;;;5033726;28;20041;-79
2021/04/18 04:58:31;;;;;;;11.68;6.40;;;;;;;;;;5033385;28;20040;-79
2021/04/18 05:00:56;;;;;;;11.00;6.70;;;;;;;;;;5023899;28;20052;-82
2021/04/18 05:03:26;;;;;;;12.52;6.53;;;;;;;;;;5031949;28;20021;-81
2021/04/18 05:05:54;;;;;;;13.63;6.57;;;;;;;;;;5032061;28;20036;-80
2021/04/18 05:08:20;;;;;;;9.85;6.97;;;;;;;;;;5032972;28;20030;-81
2021/04/18 05:10:46;;;;;;;11.65;7.03;;;;;;;;;;5033084;28;20155;-80
2021/04/18 05:13:13;;;;;;;12.95;7.28;;;;;;;;;;5032844;28;20033;-81
2021/04/18 05:15:39;;;;;;;11.20;6.55;;;;;;;;;;5033563;28;20025;-81
2021/04/18 05:18:04;;;;;;;12.73;6.78;;;;;;;;;;5032942;28;20355;-82
2021/04/18 05:20:29;;;;;;;12.82;7.28;;;;;;;;;;5033559;28;20021;-80
2021/04/18 05:22:54;;;;;;;16.33;7.80;;;;;;;;;;5032931;28;20484;-82
2021/04/18 05:25:22;;;;;;;12.20;7.70;;;;;;;;;;5032102;28;20033;-81
2021/04/18 05:27:47;;;;;;;12.43;7.53;;;;;;;;;;5025301;28;20033;-79
2021/04/18 05:30:13;;;;;;;15.43;7.30;;;;;;;;;;5037464;28;20030;-81
2021/04/18 05:32:38;;;;;;;11.88;7.15;;;;;;;;;;5031133;28;20060;-83
2021/04/18 05:35:04;;;;;;;13.35;7.45;;;;;;;;;;5034823;28;20036;-79
2021/04/18 05:37:30;;;;;;;15.80;7.18;;;;;;;;;;5036809;28;20026;-77
2021/04/18 05:39:58;;;;;;;11.25;6.88;;;;;;;;;;5037484;28;20442;-76
2021/04/18 05:42:25;;;;;;;15.43;6.55;;;;;;;;;;5034129;28;20443;-78
2021/04/18 05:44:53;;;;;;;13.95;6.97;;;;;;;;;;5030072;28;20014;-78
2021/04/18 05:47:18;;;;;;;17.67;7.28;;;;;;;;;;5019059;28;20033;-78
2021/04/18 05:49:43;;;;;;;14.70;7.30;;;;;;;;;;5036932;28;20017;-78
2021/04/18 05:52:08;;;;;;;15.00;7.22;;;;;;;;;;5030288;28;20021;-78
2021/04/18 05:54:34;;;;;;;18.38;7.40;;;;;;;;;;5036987;28;20112;-78
2021/04/18 05:57:01;;;;;;;10.93;7.15;;;;;;;;;;5036858;28;20041;-80
2021/04/18 05:59:29;;;;;;;15.55;6.50;;;;;;;;;;5019017;28;20525;-79
2021/04/18 06:01:54;;;;;;;13.85;6.78;;;;;;;;;;5037493;28;20029;-77
2021/04/18 06:04:19;;;;;;;12.52;6.30;;;;;;;;;;5025822;28;20020;-77
2021/04/18 06:06:45;;;;;;;14.50;6.57;;;;;;;;;;5019720;28;20447;-79
2021/04/18 06:09:10;;;;;;;12.48;7.15;;;;;;;;;;5018854;28;20500;-79
2021/04/18 06:11:38;;;;;;;12.25;7.43;;;;;;;;;;5018748;28;20013;-78
2021/04/18 06:14:06;;;;;;;15.68;7.05;;;;;;;;;;5015893;28;20032;-79
2021/04/18 06:16:31;;;;;;;15.85;6.68;;;;;;;;;;5018589;28;20512;-79
2021/04/18 06:18:56;;;;;;;16.77;6.88;;;;;;;;;;5036262;28;20025;-79
2021/04/18 06:21:24;;;;;;;14.23;6.10;;;;;;;;;;5019081;28;20390;-79
2021/04/18 06:23:49;;;;;;;15.38;5.95;;;;;;;;;;5021341;28;20022;-80
2021/04/18 06:26:14;;;;;;;14.15;6.00;;;;;;;;;;5036194;28;20104;-79
2021/04/18 06:28:39;;;;;;;13.70;6.22;;;;;;;;;;5017159;28;20029;-79
2021/04/18 06:31:05;;;;;;;8.77;5.97;;;;;;;;;;5018791;28;20060;-78
2021/04/18 06:33:30;;;;;;;10.50;6.53;;;;;;;;;;5036161;28;20067;-77
2021/04/18 06:35:58;;;;;;;14.88;6.75;;;;;;;;;;5018760;28;20029;-77
2021/04/18 06:38:23;;;;;;;14.80;6.85;;;;;;;;;;5018617;28;20017;-77
2021/04/18 06:40:52;;;;;;;12.18;6.50;;;;;;;;;;5010486;28;20036;-78
2021/04/18 06:43:21;;;;;;;12.52;6.30;;;;;;;;;;5016904;28;20048;-78
2021/04/18 06:45:50;;;;;;;12.57;6.53;;;;;;;;;;5014122;28;20037;-79
2021/04/18 06:48:16;;;;;;;13.48;6.65;;;;;;;;;;5010961;28;20053;-79
2021/04/18 06:50:41;;;;;;;10.15;6.30;;;;;;;;;;5007241;28;20417;-78
2021/04/18 06:53:06;;;;;;;14.77;6.78;;;;;;;;;;5011818;28;20032;-78
2021/04/18 06:55:31;;;;;;;13.55;6.85;;;;;;;;;;5018655;28;20065;-78
2021/04/18 06:57:59;;;;;;;11.88;7.78;;;;;;;;;;5036505;28;20044;-78
2021/04/18 07:00:24;;;;;;;12.75;7.40;;;;;;;;;;5039041;28;20408;-78
2021/04/18 07:02:50;;;;;;;16.35;7.28;;;;;;;;;;5035579;28;20100;-78
2021/04/18 07:05:19;;;;;;;16.42;7.60;;;;;;;;;;5038441;28;20103;-77
2021/04/18 07:07:45;;;;;;;10.77;6.32;;;;;;;;;;5031759;28;20092;-78
2021/04/18 07:10:31;;;;;;;13.80;6.45;;;;;;;;;;5035044;28;20157;-78
2021/04/18 07:13:07;;;;;;;14.77;7.35;;;;;;;;;;5033780;28;20037;-78
2021/04/18 07:15:37;;;;;;;12.20;6.63;;;;;;;;;;5035285;28;20025;-79
2021/04/18 07:18:02;;;;;;;13.38;6.70;;;;;;;;;;5035528;28;20087;-79
2021/04/18 07:20:28;;;;;;;14.77;7.50;;;;;;;;;;5035080;28;20029;-79
2021/04/18 07:22:53;;;;;;;17.75;7.47;;;;;;;;;;5034703;28;20025;-80
2021/04/18 07:25:28;;;;;;;15.75;7.68;;;;;;;;;;5034626;28;20025;-79
2021/04/18 07:27:56;;;;;;;10.90;7.03;;;;;;;;;;5043968;28;20022;-79
2021/04/18 07:30:24;;;;;;;15.63;8.40;;;;;;;;;;5036147;28;20454;-79
2021/04/18 07:33:03;;;;;;;15.68;8.30;;;;;;;;;;5022734;28;20040;-79
2021/04/18 07:35:31;;;;;;;15.48;7.35;;;;;;;;;;5030398;28;20057;-79
2021/04/18 07:38:17;;;;;;;19.88;8.50;;;;;;;;;;5051772;28;20024;-78
2021/04/18 07:40:45;;;;;;;11.80;8.23;;;;;;;;;;5033386;28;20017;-80
2021/04/18 07:43:10;;;;;;;13.88;8.07;;;;;;;;;;5034611;28;20037;-81
2021/04/18 07:45:36;;;;;;;16.67;8.27;;;;;;;;;;5033397;28;20051;-80
2021/04/18 07:48:01;;;;;;;16.63;8.15;;;;;;;;;;5031367;28;20021;-79
2021/04/18 07:50:28;;;;;;;16.10;8.32;;;;;;;;;;5032304;28;20027;-77
2021/04/18 07:52:53;;;;;;;11.32;7.88;;;;;;;;;;5033942;28;20029;-77
2021/04/18 07:55:21;;;;;;;14.85;8.02;;;;;;;;;;5033939;28;20014;-77
2021/04/18 07:57:46;;;;;;;13.98;7.20;;;;;;;;;;5033515;28;20379;-77
2021/04/18 08:00:13;;;;;;;15.63;8.52;;;;;;;;;;5034104;28;20017;-77
2021/04/18 08:02:44;;;;;;;17.63;8.27;;;;;;;;;;5033891;28;20363;-77
2021/04/18 08:05:12;;;;;;;15.90;8.00;;;;;;;;;;5033644;28;20362;-81
2021/04/18 08:07:56;;;;;;;18.70;9.02;;;;;;;;;;5032020;28;20116;-81
2021/04/18 08:10:23;;;;;;;15.52;7.90;;;;;;;;;;5029222;28;20350;-77
2021/04/18 08:13:04;;;;;;;13.88;8.20;;;;;;;;;;5032949;28;20029;-79
2021/04/18 08:15:30;;;;;;;13.65;8.60;;;;;;;;;;5031456;28;20071;-80
2021/04/18 08:18:06;;;;;;;17.30;8.80;;;;;;;;;;5034397;28;20438;-80
2021/04/18 08:20:33;;;;;;;12.93;8.05;;;;;;;;;;5035029;28;20582;-85
2021/04/18 08:23:00;;;;;;;12.93;8.20;;;;;;;;;;5014061;28;20038;-80
2021/04/18 08:25:25;;;;;;;16.35;8.52;;;;;;;;;;5026272;28;20017;-83
2021/04/18 08:28:04;;;;;;;14.52;8.07;;;;;;;;;;5021731;28;20026;-79
2021/04/18 08:30:33;;;;;;;11.32;7.40;;;;;;;;;;5035409;28;20021;-79
2021/04/18 08:32:58;;;;;;;14.80;8.60;;;;;;;;;;5031989;28;20339;-78
2021/04/18 08:35:31;;;;;;;14.93;8.85;;;;;;;;;;5012052;28;20033;-76
2021/04/18 08:38:23;;;;;;;17.65;8.30;;;;;;;;;;5033486;28;20057;-76
2021/04/18 08:41:23;;;;;;;11.18;8.07;;;;;;;;;;5016352;28;20516;-77
2021/04/18 08:44:08;;;;;;;16.60;8.98;;;;;;;;;;5009797;28;20525;-78
2021/04/18 08:46:33;;;;;;;22.10;10.07;;;;;;;;;;5016058;28;20060;-80
2021/04/18 08:49:01;;;;;;;12.93;8.07;;;;;;;;;;5033817;28;20430;-77
2021/04/18 08:51:26;;;;;;;15.10;9.90;;;;;;;;;;5033574;28;20096;-79
2021/04/18 08:54:01;;;;;;;16.55;10.18;;;;;;;;;;5033676;28;20131;-79
2021/04/18 08:56:44;;;;;;;12.43;8.75;;;;;;;;;;5033344;28;20563;-78
2021/04/18 08:59:10;;;;;;;15.27;9.73;;;;;;;;;;5038654;28;20041;-80
2021/04/18 09:01:35;;;;;;;15.23;10.25;;;;;;;;;;5042287;28;20445;-85
2021/04/18 09:04:04;;;;;;;16.33;11.07;;;;;;;;;;5046480;28;20096;-82
2021/04/18 09:06:36;;;;;;;17.63;11.90;;;;;;;;;;5033068;28;20025;-83
2021/04/18 09:09:07;;;;;;;19.60;11.30;;;;;;;;;;5033246;28;20098;-82
2021/04/18 09:11:40;;;;;;;23.30;11.07;;;;;;;;;;5016129;28;20442;-81
2021/04/18 09:14:05;;;;;;;20.92;11.38;;;;;;;;;;5025961;28;20370;-80
2021/04/18 09:16:31;;;;;;;17.73;10.45;;;;;;;;;;5016951;28;20021;-81
2021/04/18 09:19:16;;;;;;;19.67;12.07;;;;;;;;;;5038285;28;20036;-85
2021/04/18 09:21:41;;;;;;;19.95;11.20;;;;;;;;;;5033034;28;20079;-84
2021/04/18 09:24:07;;;;;;;22.40;12.85;;;;;;;;;;5033141;28;20026;-86
2021/04/18 09:26:32;;;;;;;17.42;11.73;;;;;;;;;;5033176;28;20450;-87
2021/04/18 09:29:06;;;;;;;22.35;11.02;;;;;;;;;;5032662;28;20028;-84
2021/04/18 09:31:34;;;;;;;21.73;12.43;;;;;;;;;;5032780;28;20036;-84
2021/04/18 09:34:04;;;;;;;20.77;12.50;;;;;;;;;;5033050;28;20028;-84
2021/04/18 09:36:31;;;;;;;21.75;12.52;;;;;;;;;;5033587;28;20160;-82
2021/04/18 09:39:01;;;;;;;19.73;12.45;;;;;;;;;;5031244;28;20018;-84
2021/04/18 09:41:27;;;;;;;21.27;11.65;;;;;;;;;;5021698;28;20092;-83
2021/04/18 09:43:59;;;;;;;19.60;12.25;;;;;;;;;;5030819;28;20168;-83
2021/04/18 09:46:24;;;;;;;23.23;12.93;;;;;;;;;;5034333;28;20496;-83
2021/04/18 09:48:59;;;;;;;23.25;12.27;;;;;;;;;;5015864;28;20021;-83
2021/04/18 09:51:27;;;;;;;20.67;12.57;;;;;;;;;;5032342;28;20022;-83
2021/04/18 09:54:00;;;;;;;20.35;12.13;;;;;;;;;;5035418;28;20032;-83
2021/04/18 09:56:25;;;;;;;22.40;11.85;;;;;;;;;;5029107;28;20030;-83
2021/04/18 09:58:50;;;;;;;18.85;11.30;;;;;;;;;;5014950;28;20121;-83
2021/04/18 10:01:35;;;;;;;19.95;11.85;;;;;;;;;;5031877;28;20017;-83
2021/04/18 10:04:00;;;;;;;16.48;10.90;;;;;;;;;;5033787;28;20025;-83
2021/04/18 10:06:43;;;;;;;19.35;11.35;;;;;;;;;;5032334;28;20040;-83
2021/04/18 10:09:08;;;;;;;14.95;10.98;;;;;;;;;;5015578;28;20136;-83
2021/04/18 10:11:34;;;;;;;19.15;11.75;;;;;;;;;;5035816;28;20442;-83
2021/04/18 10:14:04;;;;;;;18.08;11.40;;;;;;;;;;5036877;28;20025;-83
2021/04/18 10:16:36;;;;;;;19.13;11.18;;;;;;;;;;5034942;28;20029;-83
2021/04/18 10:19:22;;;;;;;19.85;11.00;;;;;;;;;;5045704;28;20472;-83
2021/04/18 10:22:05;;;;;;;16.77;11.75;;;;;;;;;;5056711;28;20430;-82
2021/04/18 10:24:32;;;;;;;18.60;11.73;;;;;;;;;;5049529;28;20053;-79
2021/04/18 10:27:01;;;;;;;16.38;10.98;;;;;;;;;;5036564;28;20052;-80
2021/04/18 10:29:26;;;;;;;17.70;11.52;;;;;;;;;;5035839;28;20092;-80
2021/04/18 10:31:51;;;;;;;15.52;10.85;;;;;;;;;;5024310;28;20117;-80
2021/04/18 10:34:17;;;;;;;21.88;11.02;;;;;;;;;;5018390;28;20350;-80
2021/04/18 10:36:42;;;;;;;18.58;10.85;;;;;;;;;;5035410;28;20053;-80
2021/04/18 10:39:07;;;;;;;16.83;10.88;;;;;;;;;;5002217;28;20026;-81
2021/04/18 10:41:35;;;;;;;17.35;11.20;;;;;;;;;;5019006;28;20013;-80
2021/04/18 10:44:00;;;;;;;18.10;11.82;;;;;;;;;;5035891;28;20017;-80
2021/04/18 10:46:26;;;;;;;19.58;10.43;;;;;;;;;;5017038;28;20021;-80
2021/04/18 10:48:51;;;;;;;15.95;10.95;;;;;;;;;;5035583;28;20036;-80
2021/04/18 10:51:16;;;;;;;16.45;11.77;;;;;;;;;;5017992;28;20068;-78
2021/04/18 10:53:45;;;;;;;17.75;11.55;;;;;;;;;;5021990;28;20057;-78
2021/04/18 10:56:23;;;;;;;19.10;12.13;;;;;;;;;;5035073;28;20048;-81
2021/04/18 10:58:48;;;;;;;18.35;13.57;;;;;;;;;;4995216;28;20042;-78
2021/04/18 11:01:14;;;;;;;20.30;14.02;;;;;;;;;;5004839;28;20479;-78
2021/04/18 11:03:39;;;;;;;20.35;14.57;;;;;;;;;;4988141;28;20022;-79
2021/04/18 11:06:04;;;;;;;23.63;15.27;;;;;;;;;;5007508;28;20368;-78
2021/04/18 11:08:29;;;;;;;26.35;16.45;;;;;;;;;;4981205;28;20109;-81
2021/04/18 11:10:55;;;;;;;27.42;17.58;;;;;;;;;;5003152;28;20442;-82
2021/04/18 11:13:22;;;;;;;22.70;16.05;;;;;;;;;;5006960;28;20037;-80
2021/04/18 11:15:48;;;;;;;27.17;18.08;;;;;;;;;;5004763;28;20294;-78
2021/04/18 11:18:24;;;;;;;21.50;15.18;;;;;;;;;;5001253;28;20022;-80
2021/04/18 11:20:49;;;;;;;26.15;17.13;;;;;;;;;;5007475;28;20010;-79
2021/04/18 11:23:14;;;;;;;24.42;16.63;;;;;;;;;;5008021;28;20032;-79
2021/04/18 11:25:42;;;;;;;28.00;15.85;;;;;;;;;;5004061;28;20112;-82
2021/04/18 11:28:08;;;;;;;19.90;15.27;;;;;;;;;;5004510;28;20028;-81
2021/04/18 11:30:33;;;;;;;21.15;14.23;;;;;;;;;;5005045;28;20093;-82
2021/04/18 11:32:58;;;;;;;18.92;13.43;;;;;;;;;;4995399;28;20404;-76
2021/04/18 11:35:25;;;;;;;22.70;14.82;;;;;;;;;;4995924;28;20029;-77
2021/04/18 11:37:54;;;;;;;19.52;14.80;;;;;;;;;;4978729;28;20355;-78
2021/04/18 11:40:20;;;;;;;15.98;13.15;;;;;;;;;;5000346;28;20025;-78
2021/04/18 11:42:45;;;;;;;20.88;14.52;;;;;;;;;;4987604;28;20026;-81
2021/04/18 11:45:23;;;;;;;21.80;14.32;;;;;;;;;;5014682;28;20045;-82
2021/04/18 11:47:48;;;;;;;15.77;13.60;;;;;;;;;;5014876;28;20113;-75
2021/04/18 11:50:16;;;;;;;19.98;13.73;;;;;;;;;;5025687;28;20436;-82
2021/04/18 11:52:50;;;;;;;18.75;12.10;;;;;;;;;;5021100;28;20036;-79
2021/04/18 11:55:23;;;;;;;23.98;14.57;;;;;;;;;;5014923;28;20399;-79
2021/04/18 11:57:48;;;;;;;17.90;12.95;;;;;;;;;;5009622;28;20045;-79
2021/04/18 12:00:14;;;;;;;18.00;13.23;;;;;;;;;;4999092;28;20018;-79
2021/04/18 12:02:40;;;;;;;16.48;12.65;;;;;;;;;;5008193;28;20276;-84
2021/04/18 12:05:08;;;;;;;15.73;11.18;;;;;;;;;;5014792;28;20026;-88
2021/04/18 12:07:34;;;;;;;18.33;13.55;;;;;;;;;;5013891;28;20021;-88
2021/04/18 12:10:05;;;;;;;15.68;12.10;;;;;;;;;;4997473;28;20029;-88
2021/04/18 12:12:30;;;;;;;18.25;12.75;;;;;;;;;;5014627;28;20092;-89
2021/04/18 12:14:56;;;;;;;19.13;12.02;;;;;;;;;;5013828;28;20105;-89
2021/04/18 12:17:21;;;;;;;18.20;12.90;;;;;;;;;;5013719;28;20450;-89
2021/04/18 12:19:46;;;;;;;16.58;13.10;;;;;;;;;;5014546;28;20026;-89
2021/04/18 12:22:12;;;;;;;19.33;12.57;;;;;;;;;;5004017;28;20026;-87
2021/04/18 12:24:39;;;;;;;15.48;12.68;;;;;;;;;;5010237;28;20018;-90
2021/04/18 12:27:05;;;;;;;17.40;12.77;;;;;;;;;;5014323;28;20018;-88
2021/04/18 12:29:31;;;;;;;18.35;12.05;;;;;;;;;;5013473;28;20048;-87
2021/04/18 12:31:56;;;;;;;16.75;11.55;;;;;;;;;;5014608;28;20101;-88
2021/04/18 12:34:22;;;;;;;14.50;10.73;;;;;;;;;;5015888;28;20097;-88
2021/04/18 12:36:47;;;;;;;16.40;11.88;;;;;;;;;;5014515;28;20026;-88
2021/04/18 12:39:14;;;;;;;17.40;11.82;;;;;;;;;;4996641;28;20129;-87
2021/04/18 12:41:40;;;;;;;15.88;11.88;;;;;;;;;;5001824;28;20022;-87
2021/04/18 12:44:05;;;;;;;18.65;12.40;;;;;;;;;;5000389;28;20026;-88
2021/04/18 12:46:30;;;;;;;17.20;11.60;;;;;;;;;;5021388;28;20026;-90
2021/04/18 12:48:56;;;;;;;18.55;11.05;;;;;;;;;;5021497;28;20017;-90
2021/04/18 12:51:22;;;;;;;16.02;11.43;;;;;;;;;;5004116;28;20026;-87
2021/04/18 12:53:47;;;;;;;16.42;11.75;;;;;;;;;;5012525;28;20022;-90
2021/04/18 12:56:12;;;;;;;14.63;11.25;;;;;;;;;;5017271;28;20033;-91
2021/04/18 12:58:38;;;;;;;17.87;12.27;;;;;;;;;;5042568;28;20362;-90
2021/04/18 13:01:03;;;;;;;15.27;10.57;;;;;;;;;;5027479;28;20045;-90
2021/04/18 13:03:28;;;;;;;16.92;10.80;;;;;;;;;;5032803;28;20033;-87
2021/04/18 13:05:56;;;;;;;13.75;9.93;;;;;;;;;;5024475;28;20021;-86
2021/04/18 13:08:21;;;;;;;15.05;10.73;;;;;;;;;;5022761;28;20045;-87
2021/04/18 13:10:49;;;;;;;19.20;11.57;;;;;;;;;;5032034;28;20052;-86
2021/04/18 13:13:15;;;;;;;13.18;10.52;;;;;;;;;;5032067;28;20017;-88
2021/04/18 13:15:40;;;;;;;13.75;10.95;;;;;;;;;;5032502;28;20021;-87
2021/04/18 13:18:09;;;;;;;14.95;11.25;;;;;;;;;;5031934;28;20097;-85
2021/04/18 13:20:34;;;;;;;14.63;10.70;;;;;;;;;;5032958;28;20039;-86
2021/04/18 13:23:02;;;;;;;18.08;12.00;;;;;;;;;;5017525;28;20108;-85
2021/04/18 13:25:29;;;;;;;16.42;10.80;;;;;;;;;;5034713;28;20056;-83
2021/04/18 13:27:56;;;;;;;18.25;11.82;;;;;;;;;;5027497;28;21793;-83
2021/04/18 13:30:23;;;;;;;18.40;10.25;;;;;;;;;;5014968;28;20025;-81
2021/04/18 13:32:49;;;;;;;18.30;11.23;;;;;;;;;;5025831;28;20060;-74
2021/04/18 13:35:15;;;;;;;16.80;11.27;;;;;;;;;;5033297;28;20395;-75
2021/04/18 13:37:41;;;;;;;15.55;11.20;;;;;;;;;;5032160;28;20561;-87
2021/04/18 13:40:13;;;;;;;18.05;11.00;;;;;;;;;;5030487;28;20030;-77
2021/04/18 13:42:39;;;;;;;15.98;10.80;;;;;;;;;;5027924;28;20025;-77
2021/04/18 13:45:05;;;;;;;15.65;10.43;;;;;;;;;;5032857;28;20584;-76
2021/04/18 13:47:31;;;;;;;13.07;9.75;;;;;;;;;;5035340;28;20033;-75
2021/04/18 13:49:57;;;;;;;15.18;10.50;;;;;;;;;;5036997;28;20025;-75
2021/04/18 13:52:28;;;;;;;13.20;10.00;;;;;;;;;;5023694;28;20024;-77
2021/04/18 13:54:53;;;;;;;16.17;10.10;;;;;;;;;;5036383;28;20079;-76
2021/04/18 13:57:21;;;;;;;15.57;11.02;;;;;;;;;;5016639;28;20042;-76
2021/04/18 13:59:47;;;;;;;14.15;10.10;;;;;;;;;;5028541;28;20093;-77
2021/04/18 14:02:12;;;;;;;10.98;8.98;;;;;;;;;;5015479;28;20117;-76
2021/04/18 14:04:38;;;;;;;17.55;10.02;;;;;;;;;;5016471;28;20030;-77
2021/04/18 14:07:04;;;;;;;12.93;9.38;;;;;;;;;;4999099;28;20469;-77
2021/04/18 14:09:29;;;;;;;13.93;9.73;;;;;;;;;;4999566;28;20026;-76
2021/04/18 14:11:54;;;;;;;13.03;10.00;;;;;;;;;;4999080;28;20018;-77
2021/04/18 14:14:21;;;;;;;14.13;9.82;;;;;;;;;;5014868;28;20289;-77
2021/04/18 14:16:46;;;;;;;15.15;9.73;;;;;;;;;;4998124;28;20034;-78
2021/04/18 14:19:13;;;;;;;13.03;9.63;;;;;;;;;;4998320;28;20084;-78
2021/04/18 14:21:40;;;;;;;14.45;9.45;;;;;;;;;;4987255;28;20328;-78
2021/04/18 14:24:07;;;;;;;13.32;9.82;;;;;;;;;;4999635;28;20022;-78
2021/04/18 14:26:33;;;;;;;11.23;9.90;;;;;;;;;;5017021;28;20022;-75